sensor_id;sensor_type;location;lat;lon;timestamp;temperature;humidity
24049;DHT22;12250;50.956;4.746;2023-05-10T00:01:07;13.40;99.90
24049;DHT22;12250;50.956;4.746;2023-05-10T00:03:33;13.40;99.90
24049;DHT22;12250;50.956;4.746;2023-05-10T00:05:59;13.40;99.90
24049;DHT22;12250;50.956;4.746;2023-05-10T00:08:24;13.50;99.90
24049;DHT22;12250;50.956;4.746;2023-05-10T00:10:50;13.50;99.90
24049;DHT22;12250;50.956;4.746;2023-05-10T00:13:16;13.50;99.90
24049;DHT22;12250;50.956;4.746;2023-05-10T00:15:42;13.60;99.90
24049;DHT22;12250;50.956;4.746;2023-05-10T00:18:07;13.60;99.90
24049;DHT22;12250;50.956;4.746;2023-05-10T00:20:33;13.70;99.90
24049;DHT22;12250;50.956;4.746;2023-05-10T00:22:59;13.70;99.90
24049;DHT22;12250;50.956;4.746;2023-05-10T00:25:24;13.80;99.90
24049;DHT22;12250;50.956;4.746;2023-05-10T00:27:50;13.80;99.90
24049;DHT22;12250;50.956;4.746;2023-05-10T00:30:16;13.90;99.90
24049;DHT22;12250;50.956;4.746;2023-05-10T00:32:41;13.90;99.90
24049;DHT22;12250;50.956;4.746;2023-05-10T00:35:08;13.90;99.90
24049;DHT22;12250;50.956;4.746;2023-05-10T00:37:35;13.90;99.90
24049;DHT22;12250;50.956;4.746;2023-05-10T00:40:00;13.90;99.90
24049;DHT22;12250;50.956;4.746;2023-05-10T00:42:26;13.80;99.90
24049;DHT22;12250;50.956;4.746;2023-05-10T00:44:52;13.90;99.90
24049;DHT22;12250;50.956;4.746;2023-05-10T00:47:18;13.90;99.90
24049;DHT22;12250;50.956;4.746;2023-05-10T00:49:44;13.90;99.90
24049;DHT22;12250;50.956;4.746;2023-05-10T00:52:10;13.90;99.90
24049;DHT22;12250;50.956;4.746;2023-05-10T00:54:36;13.90;99.90
24049;DHT22;12250;50.956;4.746;2023-05-10T00:57:02;13.90;99.90
24049;DHT22;12250;50.956;4.746;2023-05-10T00:59:28;13.90;99.90
24049;DHT22;12250;50.956;4.746;2023-05-10T01:01:54;13.90;99.90
24049;DHT22;12250;50.956;4.746;2023-05-10T01:04:20;13.90;99.90
24049;DHT22;12250;50.956;4.746;2023-05-10T01:06:51;13.90;99.90
24049;DHT22;12250;50.956;4.746;2023-05-10T01:09:18;13.80;99.90
24049;DHT22;12250;50.956;4.746;2023-05-10T01:11:44;13.80;99.90
24049;DHT22;12250;50.956;4.746;2023-05-10T01:14:10;13.70;99.90
24049;DHT22;12250;50.956;4.746;2023-05-10T01:16:38;13.80;99.90
24049;DHT22;12250;50.956;4.746;2023-05-10T01:19:09;13.80;99.90
24049;DHT22;12250;50.956;4.746;2023-05-10T01:21:54;13.80;99.90
24049;DHT22;12250;50.956;4.746;2023-05-10T01:27:17;13.90;99.90
24049;DHT22;12250;50.956;4.746;2023-05-10T01:34:59;13.90;99.90
24049;DHT22;12250;50.956;4.746;2023-05-10T01:37:31;13.90;99.90
24049;DHT22;12250;50.956;4.746;2023-05-10T01:40:07;13.90;99.90
24049;DHT22;12250;50.956;4.746;2023-05-10T01:42:42;13.90;99.90
24049;DHT22;12250;50.956;4.746;2023-05-10T01:45:30;13.90;99.90
24049;DHT22;12250;50.956;4.746;2023-05-10T01:48:09;13.90;99.90
24049;DHT22;12250;50.956;4.746;2023-05-10T01:50:39;13.90;99.90
24049;DHT22;12250;50.956;4.746;2023-05-10T01:53:08;13.90;99.90
24049;DHT22;12250;50.956;4.746;2023-05-10T01:55:46;13.90;99.90
24049;DHT22;12250;50.956;4.746;2023-05-10T01:58:28;13.80;99.90
24049;DHT22;12250;50.956;4.746;2023-05-10T02:00:55;13.80;99.90
24049;DHT22;12250;50.956;4.746;2023-05-10T02:03:24;13.80;99.90
24049;DHT22;12250;50.956;4.746;2023-05-10T02:05:53;13.80;99.90
24049;DHT22;12250;50.956;4.746;2023-05-10T02:08:21;13.80;99.90
24049;DHT22;12250;50.956;4.746;2023-05-10T02:10:50;13.80;99.90
24049;DHT22;12250;50.956;4.746;2023-05-10T02:13:17;13.80;99.90
24049;DHT22;12250;50.956;4.746;2023-05-10T02:15:43;13.90;99.90
24049;DHT22;12250;50.956;4.746;2023-05-10T02:18:13;13.90;99.90
24049;DHT22;12250;50.956;4.746;2023-05-10T02:20:42;13.90;99.90
24049;DHT22;12250;50.956;4.746;2023-05-10T02:23:09;13.90;99.90
24049;DHT22;12250;50.956;4.746;2023-05-10T02:25:37;13.90;99.90
24049;DHT22;12250;50.956;4.746;2023-05-10T02:28:06;13.90;99.90
24049;DHT22;12250;50.956;4.746;2023-05-10T02:30:33;13.80;99.90
24049;DHT22;12250;50.956;4.746;2023-05-10T02:33:00;13.80;99.90
24049;DHT22;12250;50.956;4.746;2023-05-10T02:35:28;13.80;99.90
24049;DHT22;12250;50.956;4.746;2023-05-10T02:37:54;13.90;99.90
24049;DHT22;12250;50.956;4.746;2023-05-10T02:40:21;13.90;99.90
24049;DHT22;12250;50.956;4.746;2023-05-10T02:42:50;13.90;99.90
24049;DHT22;12250;50.956;4.746;2023-05-10T02:45:20;13.90;99.90
24049;DHT22;12250;50.956;4.746;2023-05-10T02:47:47;13.90;99.90
24049;DHT22;12250;50.956;4.746;2023-05-10T02:50:14;13.90;99.90
24049;DHT22;12250;50.956;4.746;2023-05-10T02:52:44;13.90;99.90
24049;DHT22;12250;50.956;4.746;2023-05-10T02:55:14;13.80;99.90
24049;DHT22;12250;50.956;4.746;2023-05-10T02:57:50;13.90;99.90
24049;DHT22;12250;50.956;4.746;2023-05-10T03:00:17;13.90;99.90
24049;DHT22;12250;50.956;4.746;2023-05-10T03:02:42;13.90;99.90
24049;DHT22;12250;50.956;4.746;2023-05-10T03:05:08;13.90;99.90
24049;DHT22;12250;50.956;4.746;2023-05-10T03:07:34;13.90;99.90
24049;DHT22;12250;50.956;4.746;2023-05-10T03:10:01;13.90;99.90
24049;DHT22;12250;50.956;4.746;2023-05-10T03:20:59;13.90;99.90
24049;DHT22;12250;50.956;4.746;2023-05-10T03:24:25;14.00;99.90
24049;DHT22;12250;50.956;4.746;2023-05-10T03:26:24;14.00;99.90
24049;DHT22;12250;50.956;4.746;2023-05-10T03:28:52;14.00;99.90
24049;DHT22;12250;50.956;4.746;2023-05-10T03:31:19;14.00;99.90
24049;DHT22;12250;50.956;4.746;2023-05-10T03:33:49;13.90;99.90
24049;DHT22;12250;50.956;4.746;2023-05-10T03:36:15;13.90;99.90
24049;DHT22;12250;50.956;4.746;2023-05-10T03:38:40;13.90;99.90
24049;DHT22;12250;50.956;4.746;2023-05-10T03:41:06;13.90;99.90
24049;DHT22;12250;50.956;4.746;2023-05-10T03:43:31;13.80;99.90
24049;DHT22;12250;50.956;4.746;2023-05-10T03:45:57;13.80;99.90
24049;DHT22;12250;50.956;4.746;2023-05-10T03:48:23;13.80;99.90
24049;DHT22;12250;50.956;4.746;2023-05-10T03:50:48;13.80;99.90
24049;DHT22;12250;50.956;4.746;2023-05-10T03:53:15;13.70;99.90
24049;DHT22;12250;50.956;4.746;2023-05-10T03:55:41;13.70;99.90
24049;DHT22;12250;50.956;4.746;2023-05-10T03:58:06;13.60;99.90
24049;DHT22;12250;50.956;4.746;2023-05-10T04:00:35;13.60;99.90
24049;DHT22;12250;50.956;4.746;2023-05-10T04:03:01;13.70;99.90
24049;DHT22;12250;50.956;4.746;2023-05-10T04:05:27;13.70;99.90
24049;DHT22;12250;50.956;4.746;2023-05-10T04:07:52;13.70;99.90
24049;DHT22;12250;50.956;4.746;2023-05-10T04:10:18;13.60;99.90
24049;DHT22;12250;50.956;4.746;2023-05-10T04:12:44;13.50;99.90
24049;DHT22;12250;50.956;4.746;2023-05-10T04:15:10;13.50;99.90
24049;DHT22;12250;50.956;4.746;2023-05-10T04:17:35;13.50;99.90
24049;DHT22;12250;50.956;4.746;2023-05-10T04:20:01;13.40;99.90
24049;DHT22;12250;50.956;4.746;2023-05-10T04:22:27;13.30;99.90
24049;DHT22;12250;50.956;4.746;2023-05-10T04:24:54;13.40;99.90
24049;DHT22;12250;50.956;4.746;2023-05-10T04:27:20;13.40;99.90
24049;DHT22;12250;50.956;4.746;2023-05-10T04:29:45;13.30;99.90
24049;DHT22;12250;50.956;4.746;2023-05-10T04:32:11;13.20;99.90
24049;DHT22;12250;50.956;4.746;2023-05-10T04:34:37;13.30;99.90
24049;DHT22;12250;50.956;4.746;2023-05-10T04:37:03;13.30;99.90
24049;DHT22;12250;50.956;4.746;2023-05-10T04:39:28;13.20;99.90
24049;DHT22;12250;50.956;4.746;2023-05-10T04:41:54;13.10;99.90
24049;DHT22;12250;50.956;4.746;2023-05-10T04:44:20;13.10;99.90
24049;DHT22;12250;50.956;4.746;2023-05-10T04:46:45;13.10;99.90
24049;DHT22;12250;50.956;4.746;2023-05-10T04:49:11;13.10;99.90
24049;DHT22;12250;50.956;4.746;2023-05-10T04:51:37;13.10;99.90
24049;DHT22;12250;50.956;4.746;2023-05-10T04:54:02;13.00;99.90
24049;DHT22;12250;50.956;4.746;2023-05-10T04:56:28;13.10;99.90
24049;DHT22;12250;50.956;4.746;2023-05-10T04:58:54;13.10;99.90
24049;DHT22;12250;50.956;4.746;2023-05-10T05:01:19;13.10;99.90
24049;DHT22;12250;50.956;4.746;2023-05-10T05:03:45;13.10;99.90
24049;DHT22;12250;50.956;4.746;2023-05-10T05:06:11;13.20;99.90
24049;DHT22;12250;50.956;4.746;2023-05-10T05:08:37;13.20;99.90
24049;DHT22;12250;50.956;4.746;2023-05-10T05:11:02;13.30;99.90
24049;DHT22;12250;50.956;4.746;2023-05-10T05:13:28;13.30;99.90
24049;DHT22;12250;50.956;4.746;2023-05-10T05:15:53;13.30;99.90
24049;DHT22;12250;50.956;4.746;2023-05-10T05:18:20;13.30;99.90
24049;DHT22;12250;50.956;4.746;2023-05-10T05:20:45;13.40;99.90
24049;DHT22;12250;50.956;4.746;2023-05-10T05:23:11;13.50;99.90
24049;DHT22;12250;50.956;4.746;2023-05-10T05:25:37;13.60;99.90
24049;DHT22;12250;50.956;4.746;2023-05-10T05:28:03;13.60;99.90
24049;DHT22;12250;50.956;4.746;2023-05-10T05:30:28;13.60;99.90
24049;DHT22;12250;50.956;4.746;2023-05-10T05:32:54;13.60;99.90
24049;DHT22;12250;50.956;4.746;2023-05-10T05:35:20;13.70;99.90
24049;DHT22;12250;50.956;4.746;2023-05-10T05:37:46;13.70;99.90
24049;DHT22;12250;50.956;4.746;2023-05-10T05:40:14;13.80;99.90
24049;DHT22;12250;50.956;4.746;2023-05-10T05:42:40;13.80;99.90
24049;DHT22;12250;50.956;4.746;2023-05-10T05:45:06;13.90;99.90
24049;DHT22;12250;50.956;4.746;2023-05-10T05:47:32;13.90;99.90
24049;DHT22;12250;50.956;4.746;2023-05-10T05:49:57;14.00;99.90
24049;DHT22;12250;50.956;4.746;2023-05-10T05:52:23;14.00;99.90
24049;DHT22;12250;50.956;4.746;2023-05-10T05:54:48;14.20;99.90
24049;DHT22;12250;50.956;4.746;2023-05-10T05:57:14;14.20;99.90
24049;DHT22;12250;50.956;4.746;2023-05-10T05:59:40;14.40;99.90
24049;DHT22;12250;50.956;4.746;2023-05-10T06:02:09;14.50;99.90
24049;DHT22;12250;50.956;4.746;2023-05-10T06:04:35;14.60;99.90
24049;DHT22;12250;50.956;4.746;2023-05-10T06:07:01;14.70;99.90
24049;DHT22;12250;50.956;4.746;2023-05-10T06:09:26;14.80;99.90
24049;DHT22;12250;50.956;4.746;2023-05-10T06:11:52;14.80;99.90
24049;DHT22;12250;50.956;4.746;2023-05-10T06:14:20;14.80;99.90
24049;DHT22;12250;50.956;4.746;2023-05-10T06:16:46;14.80;99.90
24049;DHT22;12250;50.956;4.746;2023-05-10T06:19:12;14.70;99.90
24049;DHT22;12250;50.956;4.746;2023-05-10T06:21:38;14.70;99.90
24049;DHT22;12250;50.956;4.746;2023-05-10T06:24:03;14.80;99.90
24049;DHT22;12250;50.956;4.746;2023-05-10T06:26:29;14.80;99.90
24049;DHT22;12250;50.956;4.746;2023-05-10T06:28:55;14.80;99.90
24049;DHT22;12250;50.956;4.746;2023-05-10T06:31:21;14.90;99.90
24049;DHT22;12250;50.956;4.746;2023-05-10T06:33:46;14.90;99.90
24049;DHT22;12250;50.956;4.746;2023-05-10T06:36:12;14.90;99.90
24049;DHT22;12250;50.956;4.746;2023-05-10T06:38:39;14.90;99.90
24049;DHT22;12250;50.956;4.746;2023-05-10T06:41:04;15.00;99.90
24049;DHT22;12250;50.956;4.746;2023-05-10T06:43:31;15.10;99.90
24049;DHT22;12250;50.956;4.746;2023-05-10T06:45:57;15.20;99.90
24049;DHT22;12250;50.956;4.746;2023-05-10T06:48:23;15.20;99.90
24049;DHT22;12250;50.956;4.746;2023-05-10T06:50:49;15.30;99.90
24049;DHT22;12250;50.956;4.746;2023-05-10T06:53:14;15.20;99.90
24049;DHT22;12250;50.956;4.746;2023-05-10T06:55:40;15.30;99.90
24049;DHT22;12250;50.956;4.746;2023-05-10T06:58:06;15.30;99.90
24049;DHT22;12250;50.956;4.746;2023-05-10T07:00:32;15.30;99.90
24049;DHT22;12250;50.956;4.746;2023-05-10T07:02:57;15.30;99.90
24049;DHT22;12250;50.956;4.746;2023-05-10T07:05:23;15.40;99.90
24049;DHT22;12250;50.956;4.746;2023-05-10T07:07:49;15.50;99.90
24049;DHT22;12250;50.956;4.746;2023-05-10T07:10:15;15.50;99.90
24049;DHT22;12250;50.956;4.746;2023-05-10T07:12:41;15.60;99.90
24049;DHT22;12250;50.956;4.746;2023-05-10T07:15:07;15.80;99.90
24049;DHT22;12250;50.956;4.746;2023-05-10T07:17:33;15.80;99.90
24049;DHT22;12250;50.956;4.746;2023-05-10T07:19:59;15.80;99.90
24049;DHT22;12250;50.956;4.746;2023-05-10T07:22:25;16.00;99.90
24049;DHT22;12250;50.956;4.746;2023-05-10T07:24:51;16.10;99.90
24049;DHT22;12250;50.956;4.746;2023-05-10T07:27:17;16.30;99.90
24049;DHT22;12250;50.956;4.746;2023-05-10T07:29:43;16.60;99.90
24049;DHT22;12250;50.956;4.746;2023-05-10T07:32:08;16.80;99.90
24049;DHT22;12250;50.956;4.746;2023-05-10T07:34:34;17.00;99.90
24049;DHT22;12250;50.956;4.746;2023-05-10T07:37:00;17.10;99.90
24049;DHT22;12250;50.956;4.746;2023-05-10T07:39:27;17.10;99.90
24049;DHT22;12250;50.956;4.746;2023-05-10T07:41:53;17.10;99.90
24049;DHT22;12250;50.956;4.746;2023-05-10T07:44:18;17.00;99.90
24049;DHT22;12250;50.956;4.746;2023-05-10T07:46:46;16.90;99.90
24049;DHT22;12250;50.956;4.746;2023-05-10T07:49:11;16.80;99.90
24049;DHT22;12250;50.956;4.746;2023-05-10T07:51:37;16.70;99.90
24049;DHT22;12250;50.956;4.746;2023-05-10T07:54:03;16.50;99.90
24049;DHT22;12250;50.956;4.746;2023-05-10T07:56:30;16.30;99.90
24049;DHT22;12250;50.956;4.746;2023-05-10T07:58:58;16.40;99.90
24049;DHT22;12250;50.956;4.746;2023-05-10T08:01:25;16.60;99.90
24049;DHT22;12250;50.956;4.746;2023-05-10T08:03:51;16.60;99.90
24049;DHT22;12250;50.956;4.746;2023-05-10T08:06:19;16.40;99.90
24049;DHT22;12250;50.956;4.746;2023-05-10T08:08:47;16.20;99.90
24049;DHT22;12250;50.956;4.746;2023-05-10T08:11:19;16.00;99.90
24049;DHT22;12250;50.956;4.746;2023-05-10T08:13:46;15.80;99.90
24049;DHT22;12250;50.956;4.746;2023-05-10T08:16:12;15.80;99.90
24049;DHT22;12250;50.956;4.746;2023-05-10T08:18:39;15.90;99.90
24049;DHT22;12250;50.956;4.746;2023-05-10T08:21:05;16.00;99.90
24049;DHT22;12250;50.956;4.746;2023-05-10T08:23:30;16.20;99.90
24049;DHT22;12250;50.956;4.746;2023-05-10T08:25:56;16.20;99.90
24049;DHT22;12250;50.956;4.746;2023-05-10T08:28:22;16.20;99.90
24049;DHT22;12250;50.956;4.746;2023-05-10T08:30:49;16.10;99.90
24049;DHT22;12250;50.956;4.746;2023-05-10T08:33:15;16.00;99.90
24049;DHT22;12250;50.956;4.746;2023-05-10T08:35:40;16.00;99.90
24049;DHT22;12250;50.956;4.746;2023-05-10T08:38:06;16.00;99.90
24049;DHT22;12250;50.956;4.746;2023-05-10T08:40:32;16.20;99.90
24049;DHT22;12250;50.956;4.746;2023-05-10T08:43:16;16.10;99.90
24049;DHT22;12250;50.956;4.746;2023-05-10T08:45:43;16.00;99.90
24049;DHT22;12250;50.956;4.746;2023-05-10T08:48:11;15.90;99.90
24049;DHT22;12250;50.956;4.746;2023-05-10T08:50:40;16.00;99.90
24049;DHT22;12250;50.956;4.746;2023-05-10T08:53:13;16.10;99.90
24049;DHT22;12250;50.956;4.746;2023-05-10T08:55:38;16.20;99.90
24049;DHT22;12250;50.956;4.746;2023-05-10T08:58:06;16.30;99.90
24049;DHT22;12250;50.956;4.746;2023-05-10T09:00:32;16.60;99.90
24049;DHT22;12250;50.956;4.746;2023-05-10T09:02:59;16.70;99.90
24049;DHT22;12250;50.956;4.746;2023-05-10T09:05:25;17.00;99.90
24049;DHT22;12250;50.956;4.746;2023-05-10T09:07:51;17.30;99.90
24049;DHT22;12250;50.956;4.746;2023-05-10T09:10:17;17.40;99.90
24049;DHT22;12250;50.956;4.746;2023-05-10T09:12:43;17.70;99.90
24049;DHT22;12250;50.956;4.746;2023-05-10T09:15:11;17.90;99.90
24049;DHT22;12250;50.956;4.746;2023-05-10T09:17:38;18.00;99.90
24049;DHT22;12250;50.956;4.746;2023-05-10T09:20:06;18.10;99.90
24049;DHT22;12250;50.956;4.746;2023-05-10T09:22:33;18.30;99.90
24049;DHT22;12250;50.956;4.746;2023-05-10T09:25:10;18.20;99.90
24049;DHT22;12250;50.956;4.746;2023-05-10T09:27:38;18.20;99.90
24049;DHT22;12250;50.956;4.746;2023-05-10T09:30:04;18.20;99.90
24049;DHT22;12250;50.956;4.746;2023-05-10T09:32:42;18.20;99.90
24049;DHT22;12250;50.956;4.746;2023-05-10T09:35:13;18.00;99.90
24049;DHT22;12250;50.956;4.746;2023-05-10T09:37:40;17.80;99.90
24049;DHT22;12250;50.956;4.746;2023-05-10T09:40:20;17.60;99.90
24049;DHT22;12250;50.956;4.746;2023-05-10T09:45:17;17.30;99.90
24049;DHT22;12250;50.956;4.746;2023-05-10T09:47:43;17.30;99.90
24049;DHT22;12250;50.956;4.746;2023-05-10T09:50:10;17.40;99.90
24049;DHT22;12250;50.956;4.746;2023-05-10T09:52:53;17.50;99.90
24049;DHT22;12250;50.956;4.746;2023-05-10T09:55:24;17.40;99.90
24049;DHT22;12250;50.956;4.746;2023-05-10T09:58:01;17.40;99.90
24049;DHT22;12250;50.956;4.746;2023-05-10T10:00:28;17.40;99.90
24049;DHT22;12250;50.956;4.746;2023-05-10T10:02:58;17.50;99.90
24049;DHT22;12250;50.956;4.746;2023-05-10T10:05:31;17.70;99.90
24049;DHT22;12250;50.956;4.746;2023-05-10T10:07:58;18.00;99.90
24049;DHT22;12250;50.956;4.746;2023-05-10T10:10:25;18.10;99.90
24049;DHT22;12250;50.956;4.746;2023-05-10T10:12:51;18.00;99.90
24049;DHT22;12250;50.956;4.746;2023-05-10T10:15:17;18.00;99.90
24049;DHT22;12250;50.956;4.746;2023-05-10T10:17:43;17.90;99.90
24049;DHT22;12250;50.956;4.746;2023-05-10T10:20:10;18.00;99.90
24049;DHT22;12250;50.956;4.746;2023-05-10T10:22:37;17.90;99.90
24049;DHT22;12250;50.956;4.746;2023-05-10T10:25:04;17.90;99.90
24049;DHT22;12250;50.956;4.746;2023-05-10T10:30:23;18.10;99.90
24049;DHT22;12250;50.956;4.746;2023-05-10T10:35:47;18.80;99.90
24049;DHT22;12250;50.956;4.746;2023-05-10T10:38:13;19.30;99.90
24049;DHT22;12250;50.956;4.746;2023-05-10T10:40:39;19.80;99.90
24049;DHT22;12250;50.956;4.746;2023-05-10T10:46:12;20.20;99.90
24049;DHT22;12250;50.956;4.746;2023-05-10T10:48:39;20.20;99.90
24049;DHT22;12250;50.956;4.746;2023-05-10T10:51:05;20.60;99.90
24049;DHT22;12250;50.956;4.746;2023-05-10T10:53:31;21.00;99.90
24049;DHT22;12250;50.956;4.746;2023-05-10T10:56:07;21.20;99.90
24049;DHT22;12250;50.956;4.746;2023-05-10T10:58:36;21.60;99.90
24049;DHT22;12250;50.956;4.746;2023-05-10T11:01:15;22.10;99.90
24049;DHT22;12250;50.956;4.746;2023-05-10T11:03:54;22.70;99.90
24049;DHT22;12250;50.956;4.746;2023-05-10T11:06:32;23.40;99.90
24049;DHT22;12250;50.956;4.746;2023-05-10T11:09:06;24.30;99.90
24049;DHT22;12250;50.956;4.746;2023-05-10T11:11:34;25.20;99.50
24049;DHT22;12250;50.956;4.746;2023-05-10T11:14:04;26.40;96.10
24049;DHT22;12250;50.956;4.746;2023-05-10T11:16:41;25.80;94.30
24049;DHT22;12250;50.956;4.746;2023-05-10T11:19:15;24.80;95.10
24049;DHT22;12250;50.956;4.746;2023-05-10T11:21:50;24.20;97.00
24049;DHT22;12250;50.956;4.746;2023-05-10T11:24:19;23.60;97.80
24049;DHT22;12250;50.956;4.746;2023-05-10T11:26:45;23.40;99.00
24049;DHT22;12250;50.956;4.746;2023-05-10T11:29:13;23.10;98.10
24049;DHT22;12250;50.956;4.746;2023-05-10T11:31:43;22.80;98.20
24049;DHT22;12250;50.956;4.746;2023-05-10T11:34:10;22.50;99.30
24049;DHT22;12250;50.956;4.746;2023-05-10T11:36:36;22.30;99.90
24049;DHT22;12250;50.956;4.746;2023-05-10T11:39:03;22.30;99.90
24049;DHT22;12250;50.956;4.746;2023-05-10T11:41:30;22.50;99.90
24049;DHT22;12250;50.956;4.746;2023-05-10T11:43:57;22.70;99.90
24049;DHT22;12250;50.956;4.746;2023-05-10T11:46:24;22.50;99.90
24049;DHT22;12250;50.956;4.746;2023-05-10T11:48:53;22.30;99.90
24049;DHT22;12250;50.956;4.746;2023-05-10T11:51:21;22.00;99.60
24049;DHT22;12250;50.956;4.746;2023-05-10T11:53:47;22.00;99.90
24049;DHT22;12250;50.956;4.746;2023-05-10T11:56:13;22.30;99.90
24049;DHT22;12250;50.956;4.746;2023-05-10T11:58:39;22.60;99.90
24049;DHT22;12250;50.956;4.746;2023-05-10T12:01:06;22.80;99.90
24049;DHT22;12250;50.956;4.746;2023-05-10T12:03:32;22.70;99.90
24049;DHT22;12250;50.956;4.746;2023-05-10T12:05:59;22.90;99.70
24049;DHT22;12250;50.956;4.746;2023-05-10T12:08:27;23.20;99.10
24049;DHT22;12250;50.956;4.746;2023-05-10T12:11:04;23.40;98.10
24049;DHT22;12250;50.956;4.746;2023-05-10T12:13:30;23.40;98.70
24049;DHT22;12250;50.956;4.746;2023-05-10T12:15:59;23.20;98.80
24049;DHT22;12250;50.956;4.746;2023-05-10T12:18:25;22.90;97.90
24049;DHT22;12250;50.956;4.746;2023-05-10T12:20:54;22.80;98.20
24049;DHT22;12250;50.956;4.746;2023-05-10T12:23:20;22.70;99.10
24049;DHT22;12250;50.956;4.746;2023-05-10T12:25:46;22.90;99.50
24049;DHT22;12250;50.956;4.746;2023-05-10T12:28:12;23.00;98.00
24049;DHT22;12250;50.956;4.746;2023-05-10T12:30:38;23.30;98.90
24049;DHT22;12250;50.956;4.746;2023-05-10T12:33:12;23.80;98.10
24049;DHT22;12250;50.956;4.746;2023-05-10T12:35:53;23.90;97.10
24049;DHT22;12250;50.956;4.746;2023-05-10T12:38:36;24.00;97.00
24049;DHT22;12250;50.956;4.746;2023-05-10T12:41:08;24.00;97.00
24049;DHT22;12250;50.956;4.746;2023-05-10T12:43:35;23.70;96.10
24049;DHT22;12250;50.956;4.746;2023-05-10T12:46:19;23.80;97.60
24049;DHT22;12250;50.956;4.746;2023-05-10T12:48:45;23.80;95.10
24049;DHT22;12250;50.956;4.746;2023-05-10T12:51:12;24.00;97.50
24049;DHT22;12250;50.956;4.746;2023-05-10T12:53:40;24.40;97.00
24049;DHT22;12250;50.956;4.746;2023-05-10T12:56:06;24.60;96.10
24049;DHT22;12250;50.956;4.746;2023-05-10T12:58:32;24.70;95.00
24049;DHT22;12250;50.956;4.746;2023-05-10T13:00:58;24.60;94.60
24049;DHT22;12250;50.956;4.746;2023-05-10T13:03:24;24.60;95.70
24049;DHT22;12250;50.956;4.746;2023-05-10T13:05:50;24.50;94.80
24049;DHT22;12250;50.956;4.746;2023-05-10T13:08:16;24.60;93.50
24049;DHT22;12250;50.956;4.746;2023-05-10T13:10:44;24.60;94.90
24049;DHT22;12250;50.956;4.746;2023-05-10T13:13:10;24.90;93.70
24049;DHT22;12250;50.956;4.746;2023-05-10T13:15:36;24.80;93.70
24049;DHT22;12250;50.956;4.746;2023-05-10T13:18:01;24.60;92.80
24049;DHT22;12250;50.956;4.746;2023-05-10T13:20:27;24.40;93.60
24049;DHT22;12250;50.956;4.746;2023-05-10T13:22:53;24.30;93.60
24049;DHT22;12250;50.956;4.746;2023-05-10T13:25:19;24.20;94.50
24049;DHT22;12250;50.956;4.746;2023-05-10T13:27:45;24.10;93.80
24049;DHT22;12250;50.956;4.746;2023-05-10T13:30:11;23.50;94.10
24049;DHT22;12250;50.956;4.746;2023-05-10T13:32:37;23.30;95.50
24049;DHT22;12250;50.956;4.746;2023-05-10T13:35:03;23.50;96.50
24049;DHT22;12250;50.956;4.746;2023-05-10T13:37:30;23.40;96.10
24049;DHT22;12250;50.956;4.746;2023-05-10T13:39:56;23.40;96.80
24049;DHT22;12250;50.956;4.746;2023-05-10T13:42:24;23.30;95.60
24049;DHT22;12250;50.956;4.746;2023-05-10T13:44:50;23.10;96.10
24049;DHT22;12250;50.956;4.746;2023-05-10T13:47:16;23.10;95.90
24049;DHT22;12250;50.956;4.746;2023-05-10T13:49:42;23.10;96.20
24049;DHT22;12250;50.956;4.746;2023-05-10T13:52:08;23.10;96.10
24049;DHT22;12250;50.956;4.746;2023-05-10T13:54:36;23.00;96.50
24049;DHT22;12250;50.956;4.746;2023-05-10T13:57:02;23.00;97.20
24049;DHT22;12250;50.956;4.746;2023-05-10T13:59:28;22.80;96.00
24049;DHT22;12250;50.956;4.746;2023-05-10T14:01:54;22.90;96.70
24049;DHT22;12250;50.956;4.746;2023-05-10T14:04:20;22.90;96.70
24049;DHT22;12250;50.956;4.746;2023-05-10T14:06:46;23.00;96.70
24049;DHT22;12250;50.956;4.746;2023-05-10T14:09:11;23.10;97.10
24049;DHT22;12250;50.956;4.746;2023-05-10T14:11:38;23.00;96.30
24049;DHT22;12250;50.956;4.746;2023-05-10T14:14:07;22.90;97.00
24049;DHT22;12250;50.956;4.746;2023-05-10T14:16:32;22.70;97.60
24049;DHT22;12250;50.956;4.746;2023-05-10T14:18:58;22.40;98.10
24049;DHT22;12250;50.956;4.746;2023-05-10T14:21:24;22.20;97.10
24049;DHT22;12250;50.956;4.746;2023-05-10T14:23:50;21.80;97.90
24049;DHT22;12250;50.956;4.746;2023-05-10T14:26:15;21.40;99.10
24049;DHT22;12250;50.956;4.746;2023-05-10T14:28:41;21.40;99.70
24049;DHT22;12250;50.956;4.746;2023-05-10T14:31:07;21.50;99.70
24049;DHT22;12250;50.956;4.746;2023-05-10T14:33:33;21.80;99.20
24049;DHT22;12250;50.956;4.746;2023-05-10T14:35:58;21.90;98.60
24049;DHT22;12250;50.956;4.746;2023-05-10T14:38:25;21.90;98.60
24049;DHT22;12250;50.956;4.746;2023-05-10T14:40:51;22.10;99.20
24049;DHT22;12250;50.956;4.746;2023-05-10T14:43:18;22.20;97.70
24049;DHT22;12250;50.956;4.746;2023-05-10T14:45:44;22.20;97.80
24049;DHT22;12250;50.956;4.746;2023-05-10T14:48:10;22.30;97.80
24049;DHT22;12250;50.956;4.746;2023-05-10T14:50:40;22.20;97.90
24049;DHT22;12250;50.956;4.746;2023-05-10T14:53:06;22.30;97.50
24049;DHT22;12250;50.956;4.746;2023-05-10T14:55:32;22.20;98.10
24049;DHT22;12250;50.956;4.746;2023-05-10T14:57:58;22.10;98.00
24049;DHT22;12250;50.956;4.746;2023-05-10T15:00:24;22.20;98.40
24049;DHT22;12250;50.956;4.746;2023-05-10T15:02:49;22.20;97.30
24049;DHT22;12250;50.956;4.746;2023-05-10T15:05:15;22.10;98.40
24049;DHT22;12250;50.956;4.746;2023-05-10T15:07:41;22.00;97.40
24049;DHT22;12250;50.956;4.746;2023-05-10T15:10:09;21.90;97.50
24049;DHT22;12250;50.956;4.746;2023-05-10T15:12:35;21.50;98.10
24049;DHT22;12250;50.956;4.746;2023-05-10T15:15:00;21.30;97.90
24049;DHT22;12250;50.956;4.746;2023-05-10T15:17:26;21.20;98.30
24049;DHT22;12250;50.956;4.746;2023-05-10T15:19:52;21.20;98.40
24049;DHT22;12250;50.956;4.746;2023-05-10T15:22:18;21.10;98.80
24049;DHT22;12250;50.956;4.746;2023-05-10T15:24:44;20.90;98.90
24049;DHT22;12250;50.956;4.746;2023-05-10T15:27:09;20.40;98.60
24049;DHT22;12250;50.956;4.746;2023-05-10T15:29:35;20.20;99.10
24049;DHT22;12250;50.956;4.746;2023-05-10T15:32:01;19.90;99.20
24049;DHT22;12250;50.956;4.746;2023-05-10T15:34:28;19.50;99.90
24049;DHT22;12250;50.956;4.746;2023-05-10T15:36:54;19.30;99.90
24049;DHT22;12250;50.956;4.746;2023-05-10T15:39:19;19.20;99.90
24049;DHT22;12250;50.956;4.746;2023-05-10T15:41:45;19.00;99.90
24049;DHT22;12250;50.956;4.746;2023-05-10T15:44:11;18.60;99.90
24049;DHT22;12250;50.956;4.746;2023-05-10T15:46:37;18.40;99.90
24049;DHT22;12250;50.956;4.746;2023-05-10T15:49:04;18.10;99.90
24049;DHT22;12250;50.956;4.746;2023-05-10T15:51:31;17.80;99.90
24049;DHT22;12250;50.956;4.746;2023-05-10T15:53:58;17.60;99.90
24049;DHT22;12250;50.956;4.746;2023-05-10T15:56:24;17.20;99.90
24049;DHT22;12250;50.956;4.746;2023-05-10T15:58:51;16.80;99.90